PHOG Airport (Kahului) Information

FAA: OGG - ICAO: PHOG

PHOG Airport Location

State Hawaii
County Maui
City Kahului
PHOG Airport is 3 miles east of Kahului, HI.
Latitude 20-53-55.1510N
Longitude 156-25-49.6360W
Elevation 53ft

PHOG Airport METARs

METAR PHOG 200354Z 03011KT 10SM FEW040 25/18 A3003 RMK AO2 SLP175 T02500178
Altimeter 30.03"
Temperature 25.0°C (77.0°F)
Wind 30° at 11KT
Clouds few at 4,000ft
Visibility 10.0mi
Time observed: 2021-10-20T03:54:00Z

PHOG Airport Details

Status Operational
Activation October 1946
Ownership Public
Usage Public
Chart HAWAIIAN ISLANDS
ATC on-site Yes
Beacon schedule sunset-sunrise
Beacon color clear green

PHOG Airport Contacts

Owner HAWAII STATE AIRPORTS DIV
Owner address HONOLULU INTL ARPT, HONOLULU, HI 96819
Owner phone 808-838-8600
Manager RUFUS CROWE
Manager address 7688 SVRB, SAIPAN, MP 96950
Manager phone 670-234-1304

PHOG Airport (Kahului) Radio Frequencies

PHOG (Airport) Radio Frequencies

UNICOM 122.95
Common traffic advisory frequency (CTAF) 118.7